Time;durP1;ratioP1;P1;durP2;ratioP2;P2;SDS_P1;SDS_P2;PMS_P1;PMS_P2;Temp;Humidity;BMP_temperature;BMP_pressure;BME280_temperature;BME280_humidity;BME280_pressure;Samples;Min_cycle;Max_cycle;Signal;HPM_P1;HPM_P2
2024/03/06 00:00:52;;;;;;;85.00;47.70;;;;;;;2.12;86.72;98984.40;226763;1271;22528;-80
2024/03/06 00:05:54;;;;;;;83.80;48.30;;;;;;;2.05;86.82;98990.95;226713;1272;22527;-79
2024/03/06 00:10:58;;;;;;;100.80;52.10;;;;;;;1.95;86.77;98989.85;226728;1273;22546;-79
2024/03/06 00:16:00;;;;;;;99.70;53.70;;;;;;;1.87;86.86;98988.13;226825;1271;22528;-79
2024/03/06 00:21:03;;;;;;;95.20;51.20;;;;;;;1.78;86.79;98992.19;226753;1273;25244;-78
2024/03/06 00:26:07;;;;;;;90.40;50.40;;;;;;;1.70;86.87;98991.59;226809;1273;22544;-78
2024/03/06 00:31:09;;;;;;;94.20;51.70;;;;;;;1.63;86.91;98998.45;226741;1273;22949;-78
2024/03/06 00:36:12;;;;;;;98.50;52.40;;;;;;;1.56;86.96;98997.84;226846;1272;22535;-79
2024/03/06 00:41:14;;;;;;;93.90;50.80;;;;;;;1.51;87.10;99001.71;226847;1270;22675;-79
2024/03/06 00:46:16;;;;;;;92.70;52.70;;;;;;;1.46;87.16;99006.70;226920;1272;22530;-79
2024/03/06 00:51:18;;;;;;;91.70;54.00;;;;;;;1.40;87.19;99011.83;226406;1259;543597;-79
2024/03/06 00:56:25;;;;;;;95.60;53.90;;;;;;;1.33;87.26;99011.16;226688;1269;22535;-79
2024/03/06 01:01:27;;;;;;;102.80;56.00;;;;;;;1.27;87.34;99011.69;226735;1272;25404;-78
2024/03/06 01:06:29;;;;;;;101.60;56.10;;;;;;;1.22;87.43;99012.95;226737;1272;22526;-80
2024/03/06 01:11:31;;;;;;;110.30;57.20;;;;;;;1.17;87.38;99017.83;226775;1272;22534;-78
2024/03/06 01:16:33;;;;;;;125.10;64.40;;;;;;;1.14;87.61;99022.92;226841;1271;25077;-79
2024/03/06 01:21:35;;;;;;;109.30;55.00;;;;;;;1.13;87.77;99030.83;226662;1273;22563;-79
2024/03/06 01:26:37;;;;;;;94.10;50.50;;;;;;;1.11;87.83;99032.58;226680;1273;22541;-79
2024/03/06 01:31:39;;;;;;;97.50;51.70;;;;;;;1.10;87.90;99035.58;226661;1273;22781;-79
2024/03/06 01:36:41;;;;;;;100.60;52.60;;;;;;;1.12;87.95;99040.83;226712;1273;22897;-78
2024/03/06 01:41:48;;;;;;;95.40;51.30;;;;;;;1.16;88.02;99044.80;226753;1273;22537;-79
2024/03/06 01:46:50;;;;;;;98.80;53.60;;;;;;;1.20;87.89;99047.59;226754;1273;22570;-79
2024/03/06 01:51:55;;;;;;;82.40;48.40;;;;;;;1.22;87.88;99050.07;226721;1273;23162;-79
2024/03/06 01:57:02;;;;;;;81.20;49.20;;;;;;;1.22;87.92;99048.52;226768;1273;22538;-80
2024/03/06 02:02:05;;;;;;;78.20;46.70;;;;;;;1.18;87.89;99047.58;226837;1273;22537;-79
2024/03/06 02:07:12;;;;;;;81.10;46.50;;;;;;;1.14;87.83;99047.28;226821;1273;22528;-79
2024/03/06 02:12:16;;;;;;;74.30;44.30;;;;;;;1.07;87.88;99046.36;226838;1273;22663;-79
2024/03/06 02:17:19;;;;;;;78.20;45.90;;;;;;;1.01;87.95;99047.23;226802;1273;24212;-80
2024/03/06 02:22:22;;;;;;;80.80;44.80;;;;;;;0.95;88.04;99047.17;226780;1273;22596;-79
2024/03/06 02:27:24;;;;;;;73.50;44.30;;;;;;;0.90;88.13;99050.37;226702;1273;23011;-79
2024/03/06 02:32:26;;;;;;;75.10;44.60;;;;;;;0.86;88.23;99051.36;226706;1273;22530;-79
2024/03/06 02:37:28;;;;;;;72.80;43.80;;;;;;;0.82;87.92;99049.09;226803;1272;24376;-79
2024/03/06 02:42:30;;;;;;;76.00;43.50;;;;;;;0.75;88.01;99049.80;226657;1273;22554;-79
2024/03/06 02:47:32;;;;;;;74.20;43.10;;;;;;;0.65;87.91;99045.36;226812;1272;22624;-79
2024/03/06 02:52:34;;;;;;;107.50;55.10;;;;;;;0.61;88.13;99046.05;226779;1273;23675;-79
2024/03/06 02:57:37;;;;;;;95.00;48.10;;;;;;;0.60;88.39;99045.05;226896;1273;22566;-79
2024/03/06 03:02:40;;;;;;;89.10;48.10;;;;;;;0.61;88.37;99046.05;226727;1271;22551;-79
2024/03/06 03:07:42;;;;;;;94.30;46.00;;;;;;;0.56;88.25;99047.86;226849;1272;22989;-80
2024/03/06 03:12:45;;;;;;;91.80;47.50;;;;;;;0.48;88.22;99046.52;226666;1269;22535;-79
2024/03/06 03:17:47;;;;;;;97.50;49.30;;;;;;;0.42;88.24;99046.17;226879;1273;22587;-80
2024/03/06 03:22:49;;;;;;;81.00;44.30;;;;;;;0.34;88.35;99047.93;226797;1273;22543;-79
2024/03/06 03:27:51;;;;;;;81.20;43.80;;;;;;;0.28;88.31;99046.85;226732;1273;22633;-79
2024/03/06 03:32:54;;;;;;;104.10;49.10;;;;;;;0.30;88.55;99052.41;226813;1272;22541;-79
2024/03/06 03:37:56;;;;;;;173.50;50.00;;;;;;;0.26;88.13;99051.36;226873;1273;22601;-80
2024/03/06 03:42:59;;;;;;;89.00;41.00;;;;;;;0.22;88.19;99045.75;226648;1273;22710;-80
2024/03/06 03:48:02;;;;;;;110.90;40.70;;;;;;;0.23;88.57;99043.79;226792;1273;24182;-80
2024/03/06 03:53:04;;;;;;;120.50;40.60;;;;;;;0.20;88.11;99048.17;226745;1273;22584;-80
2024/03/06 03:58:06;;;;;;;94.70;39.90;;;;;;;0.11;88.19;99055.11;226694;1273;22531;-79
2024/03/06 04:03:09;;;;;;;138.90;45.10;;;;;;;0.04;87.92;99056.33;226824;1273;22532;-79
2024/03/06 04:08:11;;;;;;;88.40;38.20;;;;;;;-0.01;88.05;99060.66;226793;1273;22527;-79
2024/03/06 04:13:16;;;;;;;85.40;39.10;;;;;;;-0.07;87.97;99067.20;226846;1273;24984;-79
2024/03/06 04:18:19;;;;;;;94.50;40.20;;;;;;;-0.13;87.90;99067.78;226801;1273;24189;-79
2024/03/06 04:23:21;;;;;;;99.50;38.60;;;;;;;-0.11;88.31;99068.81;226796;1272;22545;-79
2024/03/06 04:28:24;;;;;;;87.70;40.30;;;;;;;-0.14;88.23;99076.55;226732;1272;24399;-79
2024/03/06 04:33:26;;;;;;;67.80;37.10;;;;;;;-0.17;88.12;99079.04;226733;1270;22535;-79
2024/03/06 04:38:29;;;;;;;79.30;36.30;;;;;;;-0.19;88.18;99080.33;226809;1272;22612;-79
2024/03/06 04:43:31;;;;;;;81.00;37.00;;;;;;;-0.20;88.08;99083.40;226940;1273;22550;-79
2024/03/06 04:48:33;;;;;;;114.20;41.70;;;;;;;-0.22;88.23;99084.23;226802;1270;22694;-79
2024/03/06 04:53:35;;;;;;;125.00;47.80;;;;;;;-0.19;88.49;99086.73;226873;1271;22522;-79
2024/03/06 04:58:37;;;;;;;92.90;41.50;;;;;;;-0.16;88.48;99090.69;226820;1273;22594;-79
2024/03/06 05:03:40;;;;;;;96.10;41.30;;;;;;;-0.14;88.40;99093.63;226813;1273;22587;-79
2024/03/06 05:09:00;;;;;;;90.40;41.30;;;;;;;-0.07;88.66;99096.27;226813;1269;22532;-79
2024/03/06 05:14:20;;;;;;;106.20;41.90;;;;;;;-0.02;88.42;99102.45;226906;1271;22551;-80
2024/03/06 05:19:40;;;;;;;75.40;37.20;;;;;;;0.03;88.62;99109.86;226920;1272;22494;-80
2024/03/06 05:24:59;;;;;;;63.90;33.80;;;;;;;0.05;88.67;99113.91;226794;1270;22533;-79
2024/03/06 05:30:19;;;;;;;96.60;39.00;;;;;;;0.07;88.73;99118.05;226851;1273;22615;-79
2024/03/06 05:35:39;;;;;;;87.50;39.40;;;;;;;0.10;88.47;99123.88;226973;1271;24755;-79
2024/03/06 05:40:58;;;;;;;82.60;38.80;;;;;;;0.17;88.82;99121.96;226769;1273;23063;-79
2024/03/06 05:46:19;;;;;;;56.60;29.90;;;;;;;0.24;88.69;99123.17;226755;1273;22548;-80
2024/03/06 05:51:39;;;;;;;80.30;37.60;;;;;;;0.30;88.61;99122.91;226937;1270;22522;-80
2024/03/06 05:56:59;;;;;;;75.10;32.80;;;;;;;0.39;88.73;99127.27;226815;1273;26519;-80
2024/03/06 06:02:19;;;;;;;68.70;33.30;;;;;;;0.49;88.79;99134.27;226773;1273;22557;-80
2024/03/06 06:07:22;;;;;;;77.00;32.80;;;;;;;0.57;88.69;99139.59;226923;1269;22539;-80
2024/03/06 06:12:24;;;;;;;69.00;32.30;;;;;;;0.63;88.31;99141.69;226901;1267;23056;-80
2024/03/06 06:17:26;;;;;;;84.90;37.90;;;;;;;0.69;88.14;99142.48;226915;1273;22524;-79
2024/03/06 06:22:28;;;;;;;104.70;42.10;;;;;;;0.73;88.00;99147.25;227010;1273;22546;-80
2024/03/06 06:27:30;;;;;;;109.40;41.60;;;;;;;0.80;88.06;99145.46;226833;1273;22740;-79
2024/03/06 06:32:32;;;;;;;90.20;37.70;;;;;;;0.91;88.27;99149.09;226969;1270;24247;-80
2024/03/06 06:37:34;;;;;;;101.50;38.50;;;;;;;1.00;87.99;99155.89;226810;1273;23063;-81
2024/03/06 06:42:47;;;;;;;77.70;35.70;;;;;;;1.13;88.16;99160.55;226806;1273;22543;-80
2024/03/06 06:47:51;;;;;;;90.10;37.00;;;;;;;1.28;87.98;99160.29;226872;1272;22536;-80
2024/03/06 06:52:53;;;;;;;63.60;29.50;;;;;;;1.41;88.06;99163.91;226731;1257;25329;-80
2024/03/06 06:57:56;;;;;;;63.80;30.20;;;;;;;1.52;87.83;99162.33;226644;1250;22554;-79
2024/03/06 07:03:00;;;;;;;68.20;28.10;;;;;;;1.65;87.72;99163.36;226746;1270;22523;-81
2024/03/06 07:08:02;;;;;;;75.20;30.60;;;;;;;1.78;87.66;99161.86;226725;1254;22538;-80
2024/03/06 07:13:05;;;;;;;56.80;29.60;;;;;;;1.89;87.42;99163.42;226504;1257;22570;-79
2024/03/06 07:18:10;;;;;;;60.60;28.40;;;;;;;1.96;86.98;99165.09;226621;1250;22548;-80
2024/03/06 07:23:12;;;;;;;54.10;28.60;;;;;;;1.99;86.70;99165.54;226313;1258;22654;-78
2024/03/06 07:28:14;;;;;;;61.60;29.40;;;;;;;2.07;86.72;99174.20;226115;1265;23190;-78
2024/03/06 07:33:16;;;;;;;60.30;28.10;;;;;;;2.21;86.74;99174.27;226332;1265;23074;-80
2024/03/06 07:38:19;;;;;;;58.40;29.10;;;;;;;2.38;86.61;99174.77;226252;1265;22522;-77
2024/03/06 07:43:23;;;;;;;65.60;31.10;;;;;;;2.54;86.39;99177.81;226285;1251;22988;-77
2024/03/06 07:48:25;;;;;;;68.20;32.10;;;;;;;2.69;86.40;99177.91;226190;1273;22558;-77
2024/03/06 07:53:27;;;;;;;62.30;32.10;;;;;;;2.88;86.27;99187.11;226210;1266;22574;-79
2024/03/06 07:58:29;;;;;;;54.60;29.00;;;;;;;3.02;85.87;99191.02;226277;1265;22534;-84
2024/03/06 08:03:32;;;;;;;47.20;27.30;;;;;;;3.15;85.57;99194.68;226376;1257;22697;-77
2024/03/06 08:08:34;;;;;;;45.20;26.40;;;;;;;3.24;85.18;99195.41;226368;1265;22885;-78
2024/03/06 08:13:37;;;;;;;51.60;28.40;;;;;;;3.28;84.57;99201.40;226593;1270;22516;-78
2024/03/06 08:18:39;;;;;;;50.70;29.70;;;;;;;3.36;84.38;99202.68;226635;1270;24248;-76
2024/03/06 08:23:40;;;;;;;55.50;31.80;;;;;;;3.50;84.52;99198.49;226603;1253;22564;-76
2024/03/06 08:28:43;;;;;;;45.00;27.90;;;;;;;3.65;84.32;99198.09;226641;1257;22624;-78
2024/03/06 08:33:45;;;;;;;47.60;26.60;;;;;;;3.82;84.53;99203.91;226465;1266;22569;-80
2024/03/06 08:38:47;;;;;;;45.30;28.50;;;;;;;3.97;83.94;99205.14;226583;1265;22539;-77
2024/03/06 08:43:49;;;;;;;45.70;28.00;;;;;;;4.13;84.08;99200.21;226656;1270;22530;-79
2024/03/06 08:48:51;;;;;;;43.30;27.00;;;;;;;4.26;83.59;99196.41;226411;1271;22561;-82
2024/03/06 08:53:54;;;;;;;42.60;26.70;;;;;;;4.58;83.81;99197.00;226172;1265;22638;-78
2024/03/06 08:58:56;;;;;;;42.60;27.60;;;;;;;4.87;83.37;99197.14;226263;1266;22539;-78
2024/03/06 09:03:58;;;;;;;40.80;26.10;;;;;;;5.13;82.61;99202.02;226074;1267;22947;-78
2024/03/06 09:09:00;;;;;;;37.50;24.20;;;;;;;5.23;82.04;99200.85;226519;1254;24254;-78
2024/03/06 09:14:04;;;;;;;40.50;24.20;;;;;;;5.33;81.95;99199.33;226630;1260;22544;-78
2024/03/06 09:19:07;;;;;;;35.60;24.30;;;;;;;5.34;81.78;99197.30;226779;1265;22541;-84
2024/03/06 09:24:09;;;;;;;27.90;19.30;;;;;;;5.34;81.47;99196.25;226428;1254;22517;-79
2024/03/06 09:29:12;;;;;;;29.90;21.70;;;;;;;5.38;81.73;99196.73;226686;1268;22558;-79
2024/03/06 09:34:14;;;;;;;26.50;19.10;;;;;;;5.45;81.26;99194.13;226670;1254;22529;-79
2024/03/06 09:39:20;;;;;;;22.90;16.30;;;;;;;5.48;80.95;99200.35;226754;1267;25284;-79
2024/03/06 09:44:22;;;;;;;23.00;15.70;;;;;;;5.43;80.15;99195.52;226682;1266;22566;-79
2024/03/06 09:49:25;;;;;;;20.10;14.60;;;;;;;5.53;80.76;99194.91;226490;1265;22542;-78
2024/03/06 09:54:27;;;;;;;17.90;13.10;;;;;;;5.73;80.28;99190.61;226512;1253;25096;-80
2024/03/06 09:59:30;;;;;;;18.90;13.90;;;;;;;5.89;79.52;99187.79;226280;1271;22530;-81
2024/03/06 10:04:34;;;;;;;17.10;12.60;;;;;;;6.00;79.34;99191.98;226297;1269;22541;-81
2024/03/06 10:09:36;;;;;;;18.10;12.70;;;;;;;6.29;79.56;99187.90;226437;1259;22806;-81
2024/03/06 10:14:38;;;;;;;17.60;12.80;;;;;;;6.58;78.46;99186.60;226419;1272;22536;-81
2024/03/06 10:19:40;;;;;;;19.70;13.90;;;;;;;6.86;78.33;99178.58;226504;1265;25414;-81
2024/03/06 10:24:43;;;;;;;15.20;12.20;;;;;;;7.24;77.89;99181.33;226675;1249;22579;-79
2024/03/06 10:29:46;;;;;;;15.80;11.70;;;;;;;7.55;77.07;99180.94;226746;1273;22541;-80
2024/03/06 10:34:49;;;;;;;16.40;11.60;;;;;;;7.79;76.69;99180.46;226497;1265;22644;-79
2024/03/06 10:39:54;;;;;;;14.90;11.50;;;;;;;7.98;75.92;99179.49;226573;1249;22755;-78
2024/03/06 10:44:59;;;;;;;13.50;11.30;;;;;;;8.04;75.50;99175.67;226544;1250;22537;-80
2024/03/06 10:50:04;;;;;;;14.60;12.00;;;;;;;7.97;75.12;99181.92;226645;1254;22597;-80
2024/03/06 10:55:09;;;;;;;15.30;12.20;;;;;;;7.88;74.65;99189.73;226615;1265;22596;-79
2024/03/06 11:00:17;;;;;;;15.40;12.90;;;;;;;7.76;74.45;99194.45;226685;1273;22523;-79
2024/03/06 11:05:20;;;;;;;16.10;12.80;;;;;;;7.74;74.15;99187.80;226524;1267;22554;-79
2024/03/06 11:10:41;;;;;;;16.50;12.20;;;;;;;7.66;73.44;99186.44;226642;1257;22529;-84
2024/03/06 11:15:44;;;;;;;14.50;11.50;;;;;;;7.57;73.23;99182.33;226636;1265;22983;-83
2024/03/06 11:20:46;;;;;;;14.10;11.80;;;;;;;7.51;73.44;99179.88;226485;1249;22547;-80
2024/03/06 11:25:51;;;;;;;16.30;12.80;;;;;;;7.38;73.24;99179.98;226572;1265;22548;-82
2024/03/06 11:30:53;;;;;;;17.40;13.50;;;;;;;7.19;72.72;99176.70;226529;1265;22536;-84
2024/03/06 11:36:17;;;;;;;16.40;13.40;;;;;;;7.06;73.36;99177.56;226656;1254;22534;-84
2024/03/06 11:41:25;;;;;;;17.60;13.50;;;;;;;6.95;73.30;99170.41;226594;1254;22527;-83
2024/03/06 11:46:48;;;;;;;19.40;15.70;;;;;;;6.84;73.67;99168.72;226439;1270;25919;-83
2024/03/06 11:51:53;;;;;;;18.80;14.90;;;;;;;6.70;73.84;99170.80;226681;1268;23953;-85
2024/03/06 11:56:58;;;;;;;21.40;15.90;;;;;;;6.53;74.31;99169.98;226620;1265;22534;-83
2024/03/06 12:02:05;;;;;;;22.80;16.40;;;;;;;6.34;74.95;99176.40;226709;1250;25288;-82
2024/03/06 12:07:08;;;;;;;24.20;17.80;;;;;;;6.15;75.46;99171.31;226679;1265;25448;-82
2024/03/06 12:12:12;;;;;;;22.50;17.80;;;;;;;5.90;75.71;99176.20;226472;1273;22538;-83
2024/03/06 12:17:15;;;;;;;28.00;18.00;;;;;;;5.68;76.14;99171.00;226654;1262;22541;-84
2024/03/06 12:22:25;;;;;;;26.10;18.90;;;;;;;5.51;77.03;99164.06;226573;1250;22564;-85
2024/03/06 12:27:27;;;;;;;26.20;19.70;;;;;;;5.40;77.76;99160.02;226437;1261;22537;-84
2024/03/06 12:32:30;;;;;;;25.80;19.00;;;;;;;5.30;78.10;99164.63;226322;1259;25965;-83
2024/03/06 12:37:33;;;;;;;26.80;18.80;;;;;;;5.21;78.45;99164.23;226495;1268;22564;-85
2024/03/06 12:42:36;;;;;;;23.50;16.20;;;;;;;5.12;78.44;99162.11;226581;1259;22543;-82
2024/03/06 12:47:43;;;;;;;22.60;16.50;;;;;;;5.01;78.96;99160.03;226518;1266;22644;-82
2024/03/06 12:52:45;;;;;;;22.70;17.30;;;;;;;4.86;79.37;99166.02;226536;1257;165044;-80
2024/03/06 12:57:49;;;;;;;27.90;18.70;;;;;;;4.75;79.86;99165.63;226499;1271;22538;-85
2024/03/06 13:02:52;;;;;;;26.60;19.70;;;;;;;4.67;80.19;99166.73;226523;1261;22558;-85
2024/03/06 13:07:54;;;;;;;26.90;19.20;;;;;;;4.56;80.74;99169.85;226735;1257;25236;-84
2024/03/06 13:12:56;;;;;;;30.90;21.60;;;;;;;4.47;81.17;99166.66;226496;1254;24276;-84
2024/03/06 13:18:03;;;;;;;23.50;17.10;;;;;;;4.37;81.45;99168.23;226585;1265;22554;-83
2024/03/06 13:23:05;;;;;;;24.80;17.80;;;;;;;4.29;81.56;99167.59;226547;1262;22533;-83
2024/03/06 13:28:08;;;;;;;26.90;19.10;;;;;;;4.25;82.02;99167.10;226474;1270;22539;-85
2024/03/06 13:33:12;;;;;;;24.80;17.80;;;;;;;4.22;81.96;99169.11;226364;1265;25415;-84
2024/03/06 13:38:14;;;;;;;27.40;18.90;;;;;;;4.17;82.31;99162.73;226665;1259;22533;-86
2024/03/06 13:43:17;;;;;;;31.00;19.90;;;;;;;4.12;82.65;99160.06;226512;1270;24276;-82
2024/03/06 13:48:20;;;;;;;26.10;18.30;;;;;;;4.10;82.87;99160.64;226535;1266;22512;-87
2024/03/06 13:53:22;;;;;;;29.00;20.60;;;;;;;4.07;83.12;99160.35;226808;1250;22670;-85
2024/03/06 13:58:25;;;;;;;26.90;18.50;;;;;;;4.04;83.12;99167.91;226616;1250;24321;-84
2024/03/06 14:03:33;;;;;;;30.10;19.70;;;;;;;4.00;83.12;99172.34;226445;1273;22526;-84
2024/03/06 14:08:35;;;;;;;25.90;17.10;;;;;;;3.95;83.49;99169.98;226433;1272;22542;-81
2024/03/06 14:13:38;;;;;;;32.50;21.50;;;;;;;3.88;83.39;99163.25;226363;1265;24978;-79
2024/03/06 14:18:40;;;;;;;32.30;21.00;;;;;;;3.84;83.91;99171.11;226272;1262;22971;-81
2024/03/06 14:23:42;;;;;;;35.20;22.70;;;;;;;3.82;84.09;99172.86;226313;1265;23132;-84
2024/03/06 14:28:45;;;;;;;36.90;23.60;;;;;;;3.79;84.04;99171.17;226575;1249;22539;-81
2024/03/06 14:33:48;;;;;;;36.30;22.70;;;;;;;3.75;84.33;99177.46;226440;1265;22539;-79
2024/03/06 14:38:54;;;;;;;36.50;23.10;;;;;;;3.73;84.56;99178.71;226630;1273;25282;-78
2024/03/06 14:43:56;;;;;;;41.90;25.80;;;;;;;3.72;84.87;99180.50;226628;1250;22547;-80
2024/03/06 14:48:58;;;;;;;34.60;22.90;;;;;;;3.75;84.87;99182.19;226546;1273;24247;-79
2024/03/06 14:54:01;;;;;;;35.10;23.00;;;;;;;3.77;84.88;99182.55;226566;1265;22677;-82
2024/03/06 14:59:03;;;;;;;37.50;24.20;;;;;;;3.79;85.03;99182.36;226400;1270;23050;-79
2024/03/06 15:04:05;;;;;;;34.80;22.20;;;;;;;3.81;85.30;99174.86;226097;1273;22581;-81
2024/03/06 15:09:11;;;;;;;33.30;21.90;;;;;;;3.82;85.23;99178.11;226227;1273;24267;-80
2024/03/06 15:14:13;;;;;;;35.60;23.80;;;;;;;3.84;85.31;99178.10;226301;1271;22638;-80
2024/03/06 15:19:16;;;;;;;38.70;24.40;;;;;;;3.85;85.29;99181.96;226648;1271;22526;-80
2024/03/06 15:24:19;;;;;;;42.00;25.50;;;;;;;3.84;85.51;99180.21;226645;1273;22543;-81
2024/03/06 15:29:21;;;;;;;40.60;25.50;;;;;;;3.81;85.60;99181.47;226709;1273;22538;-81
2024/03/06 15:34:23;;;;;;;41.30;24.60;;;;;;;3.78;85.92;99184.88;226815;1270;22538;-81
2024/03/06 15:39:25;;;;;;;43.60;26.20;;;;;;;3.74;85.88;99186.26;226682;1271;23610;-81
2024/03/06 15:44:27;;;;;;;50.40;28.50;;;;;;;3.71;86.21;99183.94;226624;1267;25294;-81
2024/03/06 15:49:30;;;;;;;54.80;29.80;;;;;;;3.67;86.40;99186.23;226715;1273;22545;-80
2024/03/06 15:54:33;;;;;;;55.10;29.80;;;;;;;3.64;86.63;99182.02;226728;1271;22832;-81
2024/03/06 15:59:36;;;;;;;56.70;29.70;;;;;;;3.60;86.67;99184.77;226762;1271;24395;-81
2024/03/06 16:04:38;;;;;;;52.90;29.70;;;;;;;3.55;86.82;99186.72;226683;1270;22537;-81
2024/03/06 16:09:40;;;;;;;54.90;30.10;;;;;;;3.56;86.99;99185.82;226723;1272;22543;-81
2024/03/06 16:14:42;;;;;;;59.70;32.20;;;;;;;3.54;87.23;99186.51;226725;1271;25418;-82
2024/03/06 16:19:44;;;;;;;54.70;30.90;;;;;;;3.55;87.18;99187.96;226745;1269;22550;-81
2024/03/06 16:24:48;;;;;;;58.20;31.90;;;;;;;3.55;87.14;99185.33;226702;1273;22541;-81
2024/03/06 16:29:51;;;;;;;59.40;31.50;;;;;;;3.56;87.56;99188.46;226737;1271;22555;-81
2024/03/06 16:34:53;;;;;;;59.20;31.80;;;;;;;3.57;87.61;99190.98;226781;1272;22545;-81
2024/03/06 16:39:55;;;;;;;60.90;33.00;;;;;;;3.58;87.76;99194.98;226721;1273;22529;-81
2024/03/06 16:44:57;;;;;;;64.20;33.50;;;;;;;3.60;87.93;99199.73;226614;1273;22577;-81
2024/03/06 16:49:59;;;;;;;63.20;33.10;;;;;;;3.61;87.95;99199.95;226780;1272;22563;-81
2024/03/06 16:55:01;;;;;;;55.80;31.50;;;;;;;3.62;87.96;99200.28;226709;1273;22549;-82
2024/03/06 17:00:04;;;;;;;60.50;32.20;;;;;;;3.63;88.19;99203.65;226708;1273;24221;-82
2024/03/06 17:05:10;;;;;;;57.60;31.30;;;;;;;3.65;88.63;99203.30;226774;1269;22585;-81
2024/03/06 17:10:14;;;;;;;54.80;30.50;;;;;;;3.69;88.23;99207.16;226792;1273;22526;-82
2024/03/06 17:15:17;;;;;;;55.00;31.60;;;;;;;3.70;88.51;99208.94;226788;1273;22553;-82
2024/03/06 17:20:19;;;;;;;50.60;29.90;;;;;;;3.72;88.49;99215.86;226831;1272;22544;-81
2024/03/06 17:25:22;;;;;;;57.50;31.70;;;;;;;3.74;88.79;99211.23;226653;1272;22480;-80
2024/03/06 17:30:26;;;;;;;52.90;30.40;;;;;;;3.76;88.76;99214.10;226654;1273;25571;-82
2024/03/06 17:35:28;;;;;;;56.70;32.20;;;;;;;3.78;88.82;99216.23;226659;1270;23587;-82
2024/03/06 17:40:31;;;;;;;56.40;31.90;;;;;;;3.80;88.80;99217.42;226751;1269;22533;-82
2024/03/06 17:45:33;;;;;;;61.70;33.50;;;;;;;3.83;88.88;99215.11;226726;1272;22547;-81
2024/03/06 17:50:36;;;;;;;56.60;32.10;;;;;;;3.86;88.78;99213.77;226648;1271;25230;-81
2024/03/06 17:55:41;;;;;;;62.10;34.80;;;;;;;3.90;89.37;99212.72;226761;1271;22519;-82
2024/03/06 18:00:44;;;;;;;61.90;35.50;;;;;;;3.94;89.18;99216.98;226750;1270;22531;-82
2024/03/06 18:05:46;;;;;;;64.40;36.20;;;;;;;3.97;89.02;99218.27;226742;1271;22538;-82
2024/03/06 18:10:48;;;;;;;72.20;38.50;;;;;;;4.00;89.16;99214.34;226757;1273;22557;-80
2024/03/06 18:15:52;;;;;;;73.80;40.10;;;;;;;4.05;89.22;99217.17;226633;1266;22675;-83
2024/03/06 18:20:54;;;;;;;69.30;37.20;;;;;;;4.09;89.70;99218.17;226699;1270;22694;-81
2024/03/06 18:25:57;;;;;;;67.20;36.10;;;;;;;4.15;89.65;99219.92;226805;1271;22532;-81
2024/03/06 18:30:59;;;;;;;69.60;36.60;;;;;;;4.18;89.56;99217.18;226673;1269;22558;-81
2024/03/06 18:36:06;;;;;;;59.60;32.40;;;;;;;4.22;89.63;99220.64;226814;1272;22533;-82
2024/03/06 18:41:08;;;;;;;62.00;32.30;;;;;;;4.29;89.66;99223.04;226649;1273;22562;-83
2024/03/06 18:46:10;;;;;;;60.20;30.40;;;;;;;4.35;89.76;99224.08;226765;1272;22522;-81
2024/03/06 18:51:13;;;;;;;54.10;28.60;;;;;;;4.42;89.72;99226.39;226591;1270;22526;-82
2024/03/06 18:56:15;;;;;;;61.00;30.70;;;;;;;4.48;89.84;99227.60;226775;1273;22536;-79
2024/03/06 19:01:17;;;;;;;46.40;25.00;;;;;;;4.59;89.81;99230.90;226792;1262;22531;-80
2024/03/06 19:06:18;;;;;;;48.00;26.30;;;;;;;4.65;89.68;99233.70;226687;1272;22515;-80
2024/03/06 19:11:20;;;;;;;44.30;25.20;;;;;;;4.69;89.33;99240.85;226682;1271;22949;-81
2024/03/06 19:16:24;;;;;;;51.20;26.80;;;;;;;4.64;89.43;99241.01;226703;1271;22539;-81
2024/03/06 19:21:26;;;;;;;53.50;30.10;;;;;;;4.57;89.27;99245.63;226721;1273;22535;-82
2024/03/06 19:26:28;;;;;;;55.10;31.40;;;;;;;4.52;88.96;99247.59;226687;1273;22537;-80
2024/03/06 19:31:31;;;;;;;58.20;34.30;;;;;;;4.50;88.76;99250.60;226716;1271;23490;-81
2024/03/06 19:36:36;;;;;;;44.50;26.80;;;;;;;4.51;88.99;99255.39;226710;1270;23291;-80
2024/03/06 19:41:41;;;;;;;36.40;22.80;;;;;;;4.51;89.19;99255.39;226714;1272;22542;-80
2024/03/06 19:46:43;;;;;;;32.40;21.00;;;;;;;4.49;88.82;99259.02;226749;1272;22545;-81
2024/03/06 19:51:45;;;;;;;33.10;22.10;;;;;;;4.50;89.11;99264.86;226758;1272;22535;-80
2024/03/06 19:56:49;;;;;;;31.70;21.30;;;;;;;4.50;88.93;99262.25;226655;1273;22656;-80
2024/03/06 20:01:52;;;;;;;27.10;18.90;;;;;;;4.51;88.84;99262.58;226815;1272;22568;-82
2024/03/06 20:06:54;;;;;;;25.90;16.30;;;;;;;4.50;88.95;99264.17;226755;1273;22535;-80
2024/03/06 20:11:56;;;;;;;23.30;14.50;;;;;;;4.49;88.62;99271.64;226778;1272;22533;-81
2024/03/06 20:16:59;;;;;;;23.20;16.00;;;;;;;4.46;88.36;99274.52;226731;1265;22535;-81
2024/03/06 20:22:01;;;;;;;21.30;14.60;;;;;;;4.41;87.97;99277.42;226698;1272;23600;-81
2024/03/06 20:27:04;;;;;;;23.30;16.00;;;;;;;4.35;87.89;99278.81;226660;1273;22542;-81
2024/03/06 20:32:07;;;;;;;20.50;14.60;;;;;;;4.30;88.01;99278.42;226651;1273;24264;-82
2024/03/06 20:37:09;;;;;;;22.10;14.90;;;;;;;4.25;87.60;99280.60;226738;1271;25268;-81
2024/03/06 20:42:11;;;;;;;22.90;14.70;;;;;;;4.20;87.85;99282.79;226826;1271;22815;-82
2024/03/06 20:47:13;;;;;;;20.70;13.60;;;;;;;4.16;88.07;99285.50;226717;1272;22541;-81
2024/03/06 20:52:16;;;;;;;21.20;14.00;;;;;;;4.13;87.85;99287.44;226795;1272;22545;-81
2024/03/06 20:57:18;;;;;;;21.50;14.10;;;;;;;4.11;87.80;99287.90;226609;1269;24232;-80
2024/03/06 21:02:21;;;;;;;18.80;13.40;;;;;;;4.11;87.61;99285.13;226635;1269;22533;-81
2024/03/06 21:07:25;;;;;;;24.20;17.50;;;;;;;4.11;87.85;99287.71;226682;1273;22557;-80
2024/03/06 21:12:27;;;;;;;23.50;17.10;;;;;;;4.12;87.71;99290.44;226616;1270;24229;-80
2024/03/06 21:17:29;;;;;;;26.80;18.90;;;;;;;4.11;87.59;99291.09;226676;1271;22533;-83
2024/03/06 21:22:31;;;;;;;29.70;21.90;;;;;;;4.11;87.83;99291.26;226727;1272;22534;-81
2024/03/06 21:27:33;;;;;;;27.40;19.70;;;;;;;4.10;87.83;99290.95;226811;1270;22588;-81
2024/03/06 21:32:37;;;;;;;30.30;23.00;;;;;;;4.13;87.71;99293.49;226749;1272;22551;-82
2024/03/06 21:37:39;;;;;;;27.40;21.20;;;;;;;4.17;87.60;99292.83;226828;1270;22536;-80
2024/03/06 21:42:44;;;;;;;29.40;22.90;;;;;;;4.20;87.60;99293.55;226729;1273;23337;-82
2024/03/06 21:47:46;;;;;;;26.70;21.20;;;;;;;4.24;87.52;99300.58;226749;1271;22534;-82
2024/03/06 21:52:48;;;;;;;27.90;18.90;;;;;;;4.24;87.33;99300.52;226654;1273;22592;-81
2024/03/06 21:57:50;;;;;;;26.50;18.90;;;;;;;4.24;87.19;99304.14;226798;1272;22573;-80
2024/03/06 22:02:52;;;;;;;27.80;19.90;;;;;;;4.25;87.36;99304.94;226742;1271;22633;-81
2024/03/06 22:07:56;;;;;;;23.80;17.60;;;;;;;4.24;87.50;99299.98;226793;1273;22487;-81
2024/03/06 22:12:58;;;;;;;26.60;17.60;;;;;;;4.21;87.02;99308.14;226640;1272;24235;-80
2024/03/06 22:18:00;;;;;;;24.30;17.00;;;;;;;4.19;87.12;99308.80;226747;1273;22837;-80
2024/03/06 22:23:02;;;;;;;25.30;18.20;;;;;;;4.15;86.81;99313.20;226804;1273;22547;-80
2024/03/06 22:28:04;;;;;;;25.10;18.60;;;;;;;4.12;87.26;99314.02;226726;1272;22546;-82
2024/03/06 22:33:07;;;;;;;27.00;18.50;;;;;;;4.11;86.99;99313.05;226761;1272;22543;-81
2024/03/06 22:38:09;;;;;;;26.10;17.70;;;;;;;4.09;86.95;99310.04;226782;1271;22531;-80
2024/03/06 22:43:11;;;;;;;24.30;17.40;;;;;;;4.13;87.42;99310.27;226708;1272;23629;-81
2024/03/06 22:48:13;;;;;;;26.30;17.80;;;;;;;4.15;87.34;99314.80;226814;1272;22570;-81
2024/03/06 22:53:16;;;;;;;25.80;18.50;;;;;;;4.14;87.10;99317.97;226799;1272;23412;-81
2024/03/06 22:58:18;;;;;;;29.80;18.70;;;;;;;4.16;86.94;99319.58;226745;1273;22572;-82
2024/03/06 23:03:21;;;;;;;21.30;14.30;;;;;;;4.14;87.11;99316.54;226724;1273;22535;-81
2024/03/06 23:08:23;;;;;;;21.80;14.00;;;;;;;4.12;86.91;99318.48;226771;1271;22606;-80
2024/03/06 23:13:26;;;;;;;19.80;13.00;;;;;;;4.08;87.24;99322.02;226673;1269;22503;-81